Alpine Moment — VREV7 — position and weather

sailwx.info

Track history (hours):
 
Tides and Currents Weather Stations Pressure Air Temp Water Temp Dewpoint Dewpoint Depression Visibility Wind Speed Wind Dir Waves Ship Positions

Alpine Moment

Last reported at 2017-Dec-07 20:05 UTC. Time now 2017-Dec-13 09:19 UTC.
Position N 09°11' W 079°52'.

Length 183 m; draft 11.3 m.

Type: Tanker. MMSI: 477185800.

Date/timePositionNaut miles runAvg speedWind from/ knotsBaromVisibWave heightAir tempDewpointWater temp
2017-Dec-07 20:05N 09°11' W 079°52'110.8
2017-Dec-07 20:00N 09°11' W 079°52'4 8.1
2017-Dec-07 19:30N 09°13' W 079°56'0 0.2
2017-Dec-07 18:50N 09°13' W 079°56'0 0.2
2017-Dec-07 18:23N 09°13' W 079°56'0 0.1
2017-Dec-07 17:56N 09°13' W 079°56'0 0.0
2017-Dec-07 17:29N 09°13' W 079°56'0 0.0
2017-Dec-07 16:56N 09°13' W 079°56'0 0.0
2017-Dec-07 16:26N 09°13' W 079°56'0 0.0
2017-Dec-07 15:53N 09°13' W 079°56'0 0.0
2017-Dec-07 14:59N 09°13' W 079°56'0 0.0
2017-Dec-07 14:17N 09°13' W 079°56'0 0.1
2017-Dec-07 13:56N 09°13' W 079°56'0 1.0
2017-Dec-07 13:27N 09°14' W 079°55'2 5.4
2017-Dec-07 13:00N 09°16' W 079°55'0 0.6
2017-Dec-07 12:30N 09°16' W 079°55'0 0.4
2017-Dec-07 12:01N 09°17' W 079°55'0 0.4
2017-Dec-07 11:31N 09°17' W 079°55'0 0.1
2017-Dec-07 11:01N 09°17' W 079°55'1 1.1
2017-Dec-07 10:30N 09°17' W 079°55'0 0.1
2017-Dec-07 10:01N 09°17' W 079°55'1 2.0
2017-Dec-07 09:31N 09°18' W 079°55'4 7.2
2017-Dec-07 09:01N 09°22' W 079°55'2 5.0
2017-Dec-07 08:31N 09°25' W 079°55'3 5.0
2017-Dec-07 08:00N 09°27' W 079°57'0 0.8
2017-Dec-07 07:28N 09°26' W 079°57'0 0.0
2017-Dec-07 06:58N 09°26' W 079°57'0 0.0
2017-Dec-07 06:28N 09°26' W 079°57'0 0.0
2017-Dec-07 05:58N 09°26' W 079°57'0 0.0
2017-Dec-07 05:28N 09°26' W 079°57'0 0.0
2017-Dec-07 04:58N 09°26' W 079°57'0 0.0
2017-Dec-07 04:28N 09°26' W 079°57'0 0.0
2017-Dec-07 03:58N 09°26' W 079°57'0 0.0
2017-Dec-07 03:28N 09°26' W 079°57'0 0.1
2017-Dec-07 02:55N 09°26' W 079°57'0 0.0
2017-Dec-07 02:28N 09°26' W 079°57'0 0.0
2017-Dec-07 01:58N 09°26' W 079°57'0 0.0
2017-Dec-07 01:28N 09°26' W 079°57'0 0.0
2017-Dec-07 00:58N 09°26' W 079°57'0 0.0
2017-Dec-07 00:28N 09°26' W 079°57'0 0.0
2017-Dec-06 23:58N 09°26' W 079°57'0 0.1
2017-Dec-06 23:28N 09°26' W 079°57'0 0.0
2017-Dec-06 22:58N 09°26' W 079°57'0 0.0
2017-Dec-06 22:28N 09°26' W 079°57'0 0.0
2017-Dec-06 21:55N 09°26' W 079°57'0 0.0
2017-Dec-06 21:25N 09°26' W 079°57'  
2017-Nov-30 10:01N 29°51' W 093°58'0 0.0
2017-Nov-30 09:10N 29°51' W 093°58'  
Track history (hours):
 
Tides and Currents Weather Stations Pressure Air Temp Water Temp Dewpoint Dewpoint Depression Visibility Wind Speed Wind Dir Waves Ship Positions

Alpine Moment

Last reported at 2017-Dec-07 20:05 UTC. Time now 2017-Dec-13 09:19 UTC.
Position N 09°11' W 079°52'.

Length 183 m; draft 11.3 m.

Type: Tanker. MMSI: 477185800.

Date/timePositionNaut miles runAvg speedWind from/ knotsBaromVisibWave heightAir tempDewpointWater temp
2017-Dec-07 20:05N 09°11' W 079°52'110.8
2017-Dec-07 20:00N 09°11' W 079°52'4 8.1
2017-Dec-07 19:30N 09°13' W 079°56'0 0.2
2017-Dec-07 18:50N 09°13' W 079°56'0 0.2
2017-Dec-07 18:23N 09°13' W 079°56'0 0.1
2017-Dec-07 17:56N 09°13' W 079°56'0 0.0
2017-Dec-07 17:29N 09°13' W 079°56'0 0.0
2017-Dec-07 16:56N 09°13' W 079°56'0 0.0
2017-Dec-07 16:26N 09°13' W 079°56'0 0.0
2017-Dec-07 15:53N 09°13' W 079°56'0 0.0
2017-Dec-07 14:59N 09°13' W 079°56'0 0.0
2017-Dec-07 14:17N 09°13' W 079°56'0 0.1
2017-Dec-07 13:56N 09°13' W 079°56'0 1.0
2017-Dec-07 13:27N 09°14' W 079°55'2 5.4
2017-Dec-07 13:00N 09°16' W 079°55'0 0.6
2017-Dec-07 12:30N 09°16' W 079°55'0 0.4
2017-Dec-07 12:01N 09°17' W 079°55'0 0.4
2017-Dec-07 11:31N 09°17' W 079°55'0 0.1
2017-Dec-07 11:01N 09°17' W 079°55'1 1.1
2017-Dec-07 10:30N 09°17' W 079°55'0 0.1
2017-Dec-07 10:01N 09°17' W 079°55'1 2.0
2017-Dec-07 09:31N 09°18' W 079°55'4 7.2
2017-Dec-07 09:01N 09°22' W 079°55'2 5.0
2017-Dec-07 08:31N 09°25' W 079°55'3 5.0
2017-Dec-07 08:00N 09°27' W 079°57'0 0.8
2017-Dec-07 07:28N 09°26' W 079°57'0 0.0
2017-Dec-07 06:58N 09°26' W 079°57'0 0.0
2017-Dec-07 06:28N 09°26' W 079°57'0 0.0
2017-Dec-07 05:58N 09°26' W 079°57'0 0.0
2017-Dec-07 05:28N 09°26' W 079°57'0 0.0
2017-Dec-07 04:58N 09°26' W 079°57'0 0.0
2017-Dec-07 04:28N 09°26' W 079°57'0 0.0
2017-Dec-07 03:58N 09°26' W 079°57'0 0.0
2017-Dec-07 03:28N 09°26' W 079°57'0 0.1
2017-Dec-07 02:55N 09°26' W 079°57'0 0.0
2017-Dec-07 02:28N 09°26' W 079°57'0 0.0
2017-Dec-07 01:58N 09°26' W 079°57'0 0.0
2017-Dec-07 01:28N 09°26' W 079°57'0 0.0
2017-Dec-07 00:58N 09°26' W 079°57'0 0.0
2017-Dec-07 00:28N 09°26' W 079°57'0 0.0
2017-Dec-06 23:58N 09°26' W 079°57'0 0.1
2017-Dec-06 23:28N 09°26' W 079°57'0 0.0
2017-Dec-06 22:58N 09°26' W 079°57'0 0.0
2017-Dec-06 22:28N 09°26' W 079°57'0 0.0
2017-Dec-06 21:55N 09°26' W 079°57'0 0.0
2017-Dec-06 21:25N 09°26' W 079°57'  
2017-Nov-30 10:01N 29°51' W 093°58'0 0.0
2017-Nov-30 09:10N 29°51' W 093°58'  

Dump ship's entire track history